sensor_id;sensor_type;location;lat;lon;timestamp;pressure;altitude;pressure_sealevel;temperature;humidity
40384;BME280;26097;42.366;23.818;2023-10-09T00:02:39;94479.31;;;17.16;77.65
40384;BME280;26097;42.366;23.818;2023-10-09T00:05:42;94467.69;;;17.18;78.08
40384;BME280;26097;42.366;23.818;2023-10-09T00:08:44;94463.81;;;17.12;77.96
40384;BME280;26097;42.366;23.818;2023-10-09T00:11:44;94480.78;;;17.10;78.21
40384;BME280;26097;42.366;23.818;2023-10-09T00:14:44;94487.41;;;17.14;78.76
40384;BME280;26097;42.366;23.818;2023-10-09T00:17:47;94493.34;;;17.16;78.65
40384;BME280;26097;42.366;23.818;2023-10-09T00:20:46;94503.88;;;17.16;78.96
40384;BME280;26097;42.366;23.818;2023-10-09T00:23:53;94497.03;;;17.23;78.08
40384;BME280;26097;42.366;23.818;2023-10-09T00:26:55;94480.66;;;17.30;77.94
40384;BME280;26097;42.366;23.818;2023-10-09T00:29:55;94471.38;;;17.25;78.50
40384;BME280;26097;42.366;23.818;2023-10-09T00:32:56;94487.09;;;17.17;78.44
40384;BME280;26097;42.366;23.818;2023-10-09T00:36:04;94471.59;;;17.14;78.35
40384;BME280;26097;42.366;23.818;2023-10-09T00:39:13;94468.47;;;17.01;79.33
40384;BME280;26097;42.366;23.818;2023-10-09T00:42:21;94477.63;;;16.96;79.94
40384;BME280;26097;42.366;23.818;2023-10-09T00:45:32;94490.22;;;17.03;80.23
40384;BME280;26097;42.366;23.818;2023-10-09T00:48:38;94504.06;;;17.05;80.13
40384;BME280;26097;42.366;23.818;2023-10-09T00:51:42;94497.44;;;17.01;80.16
40384;BME280;26097;42.366;23.818;2023-10-09T00:54:55;94495.47;;;17.03;80.97
40384;BME280;26097;42.366;23.818;2023-10-09T00:58:00;94493.94;;;17.10;80.71
40384;BME280;26097;42.366;23.818;2023-10-09T01:00:59;94499.34;;;17.08;80.48
40384;BME280;26097;42.366;23.818;2023-10-09T01:03:58;94496.84;;;17.07;81.12
40384;BME280;26097;42.366;23.818;2023-10-09T01:06:58;94499.63;;;17.05;80.87
40384;BME280;26097;42.366;23.818;2023-10-09T01:10:07;94501.03;;;16.99;81.37
40384;BME280;26097;42.366;23.818;2023-10-09T01:13:10;94503.94;;;16.96;81.26
40384;BME280;26097;42.366;23.818;2023-10-09T01:16:10;94507.97;;;16.91;81.27
40384;BME280;26097;42.366;23.818;2023-10-09T01:19:14;94506.06;;;16.83;81.98
40384;BME280;26097;42.366;23.818;2023-10-09T01:22:23;94502.38;;;16.76;82.40
40384;BME280;26097;42.366;23.818;2023-10-09T01:25:22;94492.81;;;16.75;81.45
40384;BME280;26097;42.366;23.818;2023-10-09T01:28:21;94508.34;;;16.68;82.32
40384;BME280;26097;42.366;23.818;2023-10-09T01:31:26;94496.75;;;16.61;82.90
40384;BME280;26097;42.366;23.818;2023-10-09T01:34:34;94500.63;;;16.56;83.08
40384;BME280;26097;42.366;23.818;2023-10-09T01:37:43;94500.09;;;16.53;84.18
40384;BME280;26097;42.366;23.818;2023-10-09T01:40:42;94508.25;;;16.50;84.11
40384;BME280;26097;42.366;23.818;2023-10-09T01:43:43;94491.09;;;16.46;84.97
40384;BME280;26097;42.366;23.818;2023-10-09T01:46:44;94503.56;;;16.44;84.41
40384;BME280;26097;42.366;23.818;2023-10-09T01:49:46;94508.72;;;16.35;85.01
40384;BME280;26097;42.366;23.818;2023-10-09T01:52:48;94538.91;;;16.31;85.16
40384;BME280;26097;42.366;23.818;2023-10-09T01:55:48;94543.88;;;16.34;84.59
40384;BME280;26097;42.366;23.818;2023-10-09T01:58:49;94537.22;;;16.30;84.49
40384;BME280;26097;42.366;23.818;2023-10-09T02:01:49;94544.72;;;16.25;84.25
40384;BME280;26097;42.366;23.818;2023-10-09T02:04:55;94536.44;;;16.20;83.76
40384;BME280;26097;42.366;23.818;2023-10-09T02:08:04;94540.59;;;16.12;84.18
40384;BME280;26097;42.366;23.818;2023-10-09T02:11:05;94542.50;;;16.10;83.76
40384;BME280;26097;42.366;23.818;2023-10-09T02:14:06;94554.56;;;16.03;83.39
40384;BME280;26097;42.366;23.818;2023-10-09T02:17:18;94557.19;;;15.93;83.92
40384;BME280;26097;42.366;23.818;2023-10-09T02:20:18;94539.19;;;15.89;83.64
40384;BME280;26097;42.366;23.818;2023-10-09T02:23:28;94565.72;;;15.85;83.43
40384;BME280;26097;42.366;23.818;2023-10-09T02:26:40;94568.75;;;15.81;82.07
40384;BME280;26097;42.366;23.818;2023-10-09T02:29:59;94574.28;;;15.78;81.13
40384;BME280;26097;42.366;23.818;2023-10-09T02:32:59;94567.66;;;15.74;80.71
40384;BME280;26097;42.366;23.818;2023-10-09T02:36:08;94565.69;;;15.66;80.66
40384;BME280;26097;42.366;23.818;2023-10-09T02:39:10;94565.56;;;15.57;80.07
40384;BME280;26097;42.366;23.818;2023-10-09T02:42:22;94601.88;;;15.42;79.58
40384;BME280;26097;42.366;23.818;2023-10-09T02:45:27;94574.75;;;15.32;79.16
40384;BME280;26097;42.366;23.818;2023-10-09T02:48:34;94582.50;;;15.24;79.13
40384;BME280;26097;42.366;23.818;2023-10-09T02:51:35;94601.78;;;15.13;79.19
40384;BME280;26097;42.366;23.818;2023-10-09T02:54:41;94591.38;;;15.02;80.29
40384;BME280;26097;42.366;23.818;2023-10-09T02:57:41;94598.13;;;14.94;80.02
40384;BME280;26097;42.366;23.818;2023-10-09T03:00:42;94596.25;;;14.85;80.34
40384;BME280;26097;42.366;23.818;2023-10-09T03:03:43;94594.66;;;14.73;79.96
40384;BME280;26097;42.366;23.818;2023-10-09T03:06:44;94593.88;;;14.61;80.63
40384;BME280;26097;42.366;23.818;2023-10-09T03:09:50;94601.44;;;14.54;80.33
40384;BME280;26097;42.366;23.818;2023-10-09T03:12:49;94610.06;;;14.45;80.85
40384;BME280;26097;42.366;23.818;2023-10-09T03:15:52;94621.34;;;14.35;80.73
40384;BME280;26097;42.366;23.818;2023-10-09T03:18:52;94633.28;;;14.28;80.52
40384;BME280;26097;42.366;23.818;2023-10-09T03:21:52;94626.88;;;14.21;80.96
40384;BME280;26097;42.366;23.818;2023-10-09T03:24:51;94634.84;;;14.19;80.53
40384;BME280;26097;42.366;23.818;2023-10-09T03:27:52;94635.47;;;14.11;81.49
40384;BME280;26097;42.366;23.818;2023-10-09T03:30:55;94635.53;;;14.00;82.92
40384;BME280;26097;42.366;23.818;2023-10-09T03:33:54;94634.13;;;13.96;82.45
40384;BME280;26097;42.366;23.818;2023-10-09T03:36:54;94649.25;;;13.92;82.59
40384;BME280;26097;42.366;23.818;2023-10-09T03:40:19;94634.84;;;13.87;83.13
40384;BME280;26097;42.366;23.818;2023-10-09T03:43:19;94647.50;;;13.81;83.34
40384;BME280;26097;42.366;23.818;2023-10-09T03:46:18;94653.00;;;13.78;83.49
40384;BME280;26097;42.366;23.818;2023-10-09T03:49:25;94641.31;;;13.71;83.00
40384;BME280;26097;42.366;23.818;2023-10-09T03:52:25;94656.94;;;13.61;84.32
40384;BME280;26097;42.366;23.818;2023-10-09T03:55:26;94650.53;;;13.54;85.30
40384;BME280;26097;42.366;23.818;2023-10-09T03:58:27;94671.13;;;13.47;85.87
40384;BME280;26097;42.366;23.818;2023-10-09T04:01:32;94671.34;;;13.44;86.02
40384;BME280;26097;42.366;23.818;2023-10-09T04:04:38;94674.94;;;13.43;86.89
40384;BME280;26097;42.366;23.818;2023-10-09T04:07:37;94669.31;;;13.36;86.61
40384;BME280;26097;42.366;23.818;2023-10-09T04:10:36;94668.22;;;13.27;87.50
40384;BME280;26097;42.366;23.818;2023-10-09T04:13:56;94681.31;;;13.16;87.54
40384;BME280;26097;42.366;23.818;2023-10-09T04:16:59;94690.34;;;13.12;87.82
40384;BME280;26097;42.366;23.818;2023-10-09T04:20:06;94691.78;;;13.05;88.94
40384;BME280;26097;42.366;23.818;2023-10-09T04:23:17;94688.69;;;12.99;89.90
40384;BME280;26097;42.366;23.818;2023-10-09T04:26:33;94694.50;;;12.92;90.67
40384;BME280;26097;42.366;23.818;2023-10-09T04:29:34;94701.38;;;12.93;89.96
40384;BME280;26097;42.366;23.818;2023-10-09T04:32:46;94702.22;;;12.93;89.48
40384;BME280;26097;42.366;23.818;2023-10-09T04:35:45;94708.41;;;12.92;90.27
40384;BME280;26097;42.366;23.818;2023-10-09T04:39:05;94704.59;;;12.85;90.34
40384;BME280;26097;42.366;23.818;2023-10-09T04:42:04;94697.22;;;12.79;90.49
40384;BME280;26097;42.366;23.818;2023-10-09T04:45:25;94711.56;;;12.73;90.40
40384;BME280;26097;42.366;23.818;2023-10-09T04:48:44;94706.91;;;12.65;90.48
40384;BME280;26097;42.366;23.818;2023-10-09T04:51:44;94705.47;;;12.61;90.73
40384;BME280;26097;42.366;23.818;2023-10-09T04:55:04;94707.00;;;12.52;91.44
40384;BME280;26097;42.366;23.818;2023-10-09T04:58:06;94708.25;;;12.47;91.25
40384;BME280;26097;42.366;23.818;2023-10-09T05:01:12;94708.25;;;12.47;91.17
40384;BME280;26097;42.366;23.818;2023-10-09T05:04:12;94699.72;;;12.45;91.03
40384;BME280;26097;42.366;23.818;2023-10-09T05:07:33;94701.47;;;12.44;89.72
40384;BME280;26097;42.366;23.818;2023-10-09T05:10:57;94711.81;;;12.46;88.59
40384;BME280;26097;42.366;23.818;2023-10-09T05:13:56;94713.75;;;12.55;86.93
40384;BME280;26097;42.366;23.818;2023-10-09T05:17:10;94707.38;;;12.59;86.11
40384;BME280;26097;42.366;23.818;2023-10-09T05:20:14;94707.28;;;12.72;84.41
40384;BME280;26097;42.366;23.818;2023-10-09T05:23:26;94704.09;;;12.80;83.29
40384;BME280;26097;42.366;23.818;2023-10-09T05:26:25;94711.00;;;12.81;83.27
40384;BME280;26097;42.366;23.818;2023-10-09T05:29:44;94720.75;;;12.79;82.26
40384;BME280;26097;42.366;23.818;2023-10-09T05:33:11;94730.69;;;12.74;81.92
40384;BME280;26097;42.366;23.818;2023-10-09T05:36:32;94725.03;;;12.80;81.50
40384;BME280;26097;42.366;23.818;2023-10-09T05:39:34;94738.81;;;12.82;81.07
40384;BME280;26097;42.366;23.818;2023-10-09T05:42:42;94739.88;;;12.79;80.81
40384;BME280;26097;42.366;23.818;2023-10-09T05:45:42;94740.69;;;12.68;78.94
40384;BME280;26097;42.366;23.818;2023-10-09T05:49:00;94757.56;;;12.64;79.21
40384;BME280;26097;42.366;23.818;2023-10-09T05:52:08;94766.84;;;12.68;78.83
40384;BME280;26097;42.366;23.818;2023-10-09T05:55:29;94781.25;;;12.74;76.40
40384;BME280;26097;42.366;23.818;2023-10-09T05:58:47;94791.41;;;12.90;74.47
40384;BME280;26097;42.366;23.818;2023-10-09T06:02:06;94806.31;;;13.01;71.70
40384;BME280;26097;42.366;23.818;2023-10-09T06:05:24;94808.13;;;13.12;71.66
40384;BME280;26097;42.366;23.818;2023-10-09T06:09:03;94814.78;;;13.16;68.56
40384;BME280;26097;42.366;23.818;2023-10-09T06:12:12;94813.88;;;13.28;68.16
40384;BME280;26097;42.366;23.818;2023-10-09T06:15:36;94833.63;;;13.21;67.32
40384;BME280;26097;42.366;23.818;2023-10-09T06:18:46;94840.97;;;13.16;68.69
40384;BME280;26097;42.366;23.818;2023-10-09T06:21:59;94847.16;;;13.15;67.53
40384;BME280;26097;42.366;23.818;2023-10-09T06:25:11;94842.66;;;13.17;67.98
40384;BME280;26097;42.366;23.818;2023-10-09T06:28:11;94842.66;;;13.17;68.92
40384;BME280;26097;42.366;23.818;2023-10-09T06:31:13;94853.13;;;13.17;68.94
40384;BME280;26097;42.366;23.818;2023-10-09T06:34:51;94862.75;;;13.17;69.29
40384;BME280;26097;42.366;23.818;2023-10-09T06:37:51;94866.72;;;13.22;69.44
40384;BME280;26097;42.366;23.818;2023-10-09T06:41:02;94866.81;;;13.45;68.65
40384;BME280;26097;42.366;23.818;2023-10-09T06:44:33;94863.84;;;13.61;68.68
40384;BME280;26097;42.366;23.818;2023-10-09T06:47:51;94875.91;;;13.64;69.11
40384;BME280;26097;42.366;23.818;2023-10-09T06:51:29;94881.41;;;13.83;69.28
40384;BME280;26097;42.366;23.818;2023-10-09T06:54:28;94887.59;;;13.82;70.81
40384;BME280;26097;42.366;23.818;2023-10-09T06:57:36;94887.56;;;13.71;71.76
40384;BME280;26097;42.366;23.818;2023-10-09T07:00:54;94898.72;;;13.50;70.93
40384;BME280;26097;42.366;23.818;2023-10-09T07:04:13;94895.31;;;13.73;71.08
40384;BME280;26097;42.366;23.818;2023-10-09T07:07:39;94896.53;;;14.03;70.20
40384;BME280;26097;42.366;23.818;2023-10-09T07:10:49;94900.50;;;14.08;69.26
40384;BME280;26097;42.366;23.818;2023-10-09T07:14:02;94893.09;;;13.91;69.33
40384;BME280;26097;42.366;23.818;2023-10-09T07:17:07;94899.28;;;13.78;68.70
40384;BME280;26097;42.366;23.818;2023-10-09T07:20:21;94894.38;;;13.85;68.79
40384;BME280;26097;42.366;23.818;2023-10-09T07:23:38;94894.75;;;13.92;68.17
40384;BME280;26097;42.366;23.818;2023-10-09T07:26:47;94889.75;;;13.89;67.83
40384;BME280;26097;42.366;23.818;2023-10-09T07:29:46;94884.41;;;14.02;68.41
40384;BME280;26097;42.366;23.818;2023-10-09T07:32:48;94886.91;;;14.03;66.81
40384;BME280;26097;42.366;23.818;2023-10-09T07:35:51;94876.44;;;14.26;66.23
40384;BME280;26097;42.366;23.818;2023-10-09T07:38:56;94881.19;;;14.43;64.68
40384;BME280;26097;42.366;23.818;2023-10-09T07:41:58;94877.72;;;14.43;63.00
40384;BME280;26097;42.366;23.818;2023-10-09T07:45:16;94874.13;;;14.44;64.32
40384;BME280;26097;42.366;23.818;2023-10-09T07:48:18;94867.13;;;14.33;64.00
40384;BME280;26097;42.366;23.818;2023-10-09T07:51:24;94867.00;;;14.46;65.13
40384;BME280;26097;42.366;23.818;2023-10-09T07:54:29;94860.75;;;14.59;64.78
40384;BME280;26097;42.366;23.818;2023-10-09T07:57:31;94866.97;;;14.69;63.13
40384;BME280;26097;42.366;23.818;2023-10-09T08:00:37;94861.72;;;14.57;62.67
40384;BME280;26097;42.366;23.818;2023-10-09T08:03:57;94855.41;;;14.49;60.05
40384;BME280;26097;42.366;23.818;2023-10-09T08:06:58;94852.88;;;14.70;61.00
40384;BME280;26097;42.366;23.818;2023-10-09T08:09:58;94848.72;;;14.67;61.19
40384;BME280;26097;42.366;23.818;2023-10-09T08:13:12;94850.25;;;14.70;60.70
40384;BME280;26097;42.366;23.818;2023-10-09T08:16:37;94840.44;;;14.95;58.55
40384;BME280;26097;42.366;23.818;2023-10-09T08:19:47;94854.09;;;15.10;56.29
40384;BME280;26097;42.366;23.818;2023-10-09T08:22:53;94854.75;;;15.23;56.52
40384;BME280;26097;42.366;23.818;2023-10-09T08:26:02;94847.72;;;15.45;55.18
40384;BME280;26097;42.366;23.818;2023-10-09T08:29:14;94848.63;;;15.55;55.42
40384;BME280;26097;42.366;23.818;2023-10-09T08:32:17;94855.72;;;15.65;54.28
40384;BME280;26097;42.366;23.818;2023-10-09T08:35:37;94847.66;;;15.56;52.95
40384;BME280;26097;42.366;23.818;2023-10-09T08:38:46;94852.56;;;15.71;51.85
40384;BME280;26097;42.366;23.818;2023-10-09T08:41:45;94845.16;;;15.76;51.04
40384;BME280;26097;42.366;23.818;2023-10-09T08:44:45;94854.00;;;15.75;48.26
40384;BME280;26097;42.366;23.818;2023-10-09T08:47:48;94842.66;;;15.96;48.25
40384;BME280;26097;42.366;23.818;2023-10-09T08:50:51;94836.69;;;15.94;48.10
40384;BME280;26097;42.366;23.818;2023-10-09T08:53:54;94845.06;;;16.09;47.57
40384;BME280;26097;42.366;23.818;2023-10-09T08:56:55;94830.91;;;16.00;47.31
40384;BME280;26097;42.366;23.818;2023-10-09T08:59:55;94832.00;;;15.97;47.73
40384;BME280;26097;42.366;23.818;2023-10-09T09:02:55;94824.47;;;16.14;47.73
40384;BME280;26097;42.366;23.818;2023-10-09T09:06:00;94826.47;;;16.32;47.14
40384;BME280;26097;42.366;23.818;2023-10-09T09:09:11;94824.31;;;16.66;44.35
40384;BME280;26097;42.366;23.818;2023-10-09T09:12:14;94817.25;;;16.57;43.02
40384;BME280;26097;42.366;23.818;2023-10-09T09:15:16;94810.34;;;16.76;43.45
40384;BME280;26097;42.366;23.818;2023-10-09T09:18:18;94813.81;;;16.76;42.28
40384;BME280;26097;42.366;23.818;2023-10-09T09:21:18;94812.16;;;16.85;43.45
40384;BME280;26097;42.366;23.818;2023-10-09T09:24:21;94823.66;;;16.84;42.21
40384;BME280;26097;42.366;23.818;2023-10-09T09:27:20;94809.78;;;16.62;44.05
40384;BME280;26097;42.366;23.818;2023-10-09T09:30:30;94807.03;;;16.93;43.33
40384;BME280;26097;42.366;23.818;2023-10-09T09:33:33;94812.75;;;16.98;42.27
40384;BME280;26097;42.366;23.818;2023-10-09T09:36:51;94808.28;;;17.28;41.74
40384;BME280;26097;42.366;23.818;2023-10-09T09:39:57;94800.00;;;17.13;39.81
40384;BME280;26097;42.366;23.818;2023-10-09T09:43:01;94801.53;;;17.16;40.90
40384;BME280;26097;42.366;23.818;2023-10-09T09:46:05;94796.66;;;17.21;40.39
40384;BME280;26097;42.366;23.818;2023-10-09T09:49:07;94786.81;;;17.13;40.18
40384;BME280;26097;42.366;23.818;2023-10-09T09:52:16;94778.59;;;17.46;41.18
40384;BME280;26097;42.366;23.818;2023-10-09T09:55:17;94795.09;;;17.48;39.68
40384;BME280;26097;42.366;23.818;2023-10-09T09:58:17;94777.06;;;17.53;39.37
40384;BME280;26097;42.366;23.818;2023-10-09T10:01:21;94783.81;;;17.66;39.63
40384;BME280;26097;42.366;23.818;2023-10-09T10:04:28;94777.06;;;17.53;39.07
40384;BME280;26097;42.366;23.818;2023-10-09T10:07:30;94773.19;;;17.48;39.65
40384;BME280;26097;42.366;23.818;2023-10-09T10:17:05;94757.28;;;17.77;38.73
40384;BME280;26097;42.366;23.818;2023-10-09T10:20:16;94760.53;;;17.99;38.85
40384;BME280;26097;42.366;23.818;2023-10-09T10:23:19;94750.28;;;17.96;38.88
40384;BME280;26097;42.366;23.818;2023-10-09T10:26:24;94736.38;;;18.04;39.83
40384;BME280;26097;42.366;23.818;2023-10-09T10:29:29;94743.56;;;18.11;38.59
40384;BME280;26097;42.366;23.818;2023-10-09T10:35:50;94730.63;;;18.36;39.53
40384;BME280;26097;42.366;23.818;2023-10-09T10:39:05;94731.31;;;18.38;38.38
40384;BME280;26097;42.366;23.818;2023-10-09T10:42:09;94718.25;;;18.37;38.33
40384;BME280;26097;42.366;23.818;2023-10-09T10:45:26;94717.59;;;18.35;38.87
40384;BME280;26097;42.366;23.818;2023-10-09T10:48:35;94701.47;;;18.56;39.01
40384;BME280;26097;42.366;23.818;2023-10-09T10:51:37;94688.84;;;18.86;38.83
40384;BME280;26097;42.366;23.818;2023-10-09T10:54:37;94687.50;;;18.82;38.23
40384;BME280;26097;42.366;23.818;2023-10-09T10:57:37;94686.28;;;18.94;37.36
40384;BME280;26097;42.366;23.818;2023-10-09T11:00:55;94684.56;;;19.03;37.51
40384;BME280;26097;42.366;23.818;2023-10-09T11:03:58;94682.53;;;18.79;37.96
40384;BME280;26097;42.366;23.818;2023-10-09T11:06:59;94664.47;;;18.92;37.68
40384;BME280;26097;42.366;23.818;2023-10-09T11:10:22;94666.63;;;19.15;36.99
40384;BME280;26097;42.366;23.818;2023-10-09T11:13:27;94658.41;;;19.18;36.73
40384;BME280;26097;42.366;23.818;2023-10-09T11:16:29;94655.31;;;19.31;37.19
40384;BME280;26097;42.366;23.818;2023-10-09T11:19:41;94648.34;;;19.57;36.48
40384;BME280;26097;42.366;23.818;2023-10-09T11:22:42;94651.94;;;19.82;36.93
40384;BME280;26097;42.366;23.818;2023-10-09T11:26:06;94646.59;;;19.74;36.36
40384;BME280;26097;42.366;23.818;2023-10-09T11:29:27;94642.97;;;19.75;36.31
40384;BME280;26097;42.366;23.818;2023-10-09T11:32:49;94644.06;;;19.55;35.31
40384;BME280;26097;42.366;23.818;2023-10-09T11:35:56;94636.94;;;19.21;34.93
40384;BME280;26097;42.366;23.818;2023-10-09T11:39:00;94633.47;;;19.21;34.70
40384;BME280;26097;42.366;23.818;2023-10-09T11:42:27;94637.00;;;19.30;34.68
40384;BME280;26097;42.366;23.818;2023-10-09T11:45:45;94620.53;;;19.44;34.64
40384;BME280;26097;42.366;23.818;2023-10-09T11:49:05;94617.69;;;19.80;34.57
40384;BME280;26097;42.366;23.818;2023-10-09T11:52:34;94595.44;;;19.91;35.39
40384;BME280;26097;42.366;23.818;2023-10-09T11:55:35;94587.72;;;20.15;34.89
40384;BME280;26097;42.366;23.818;2023-10-09T11:58:35;94565.56;;;20.40;35.27
40384;BME280;26097;42.366;23.818;2023-10-09T12:01:39;94565.22;;;20.44;35.00
40384;BME280;26097;42.366;23.818;2023-10-09T12:04:41;94558.28;;;20.43;34.13
40384;BME280;26097;42.366;23.818;2023-10-09T12:07:41;94556.31;;;20.45;34.33
40384;BME280;26097;42.366;23.818;2023-10-09T12:10:41;94556.63;;;20.41;34.07
40384;BME280;26097;42.366;23.818;2023-10-09T12:13:40;94572.50;;;20.75;34.16
40384;BME280;26097;42.366;23.818;2023-10-09T12:16:42;94564.88;;;20.96;34.07
40384;BME280;26097;42.366;23.818;2023-10-09T12:19:48;94569.19;;;20.89;33.76
40384;BME280;26097;42.366;23.818;2023-10-09T12:22:50;94567.16;;;21.08;33.35
40384;BME280;26097;42.366;23.818;2023-10-09T12:25:50;94563.47;;;21.25;32.89
40384;BME280;26097;42.366;23.818;2023-10-09T12:28:49;94560.31;;;21.22;32.66
40384;BME280;26097;42.366;23.818;2023-10-09T12:31:50;94548.06;;;21.21;33.26
40384;BME280;26097;42.366;23.818;2023-10-09T12:34:57;94548.13;;;21.04;30.93
40384;BME280;26097;42.366;23.818;2023-10-09T12:37:56;94546.94;;;21.15;32.07
40384;BME280;26097;42.366;23.818;2023-10-09T12:41:05;94545.63;;;21.03;30.47
40384;BME280;26097;42.366;23.818;2023-10-09T12:44:18;94539.22;;;20.97;31.35
40384;BME280;26097;42.366;23.818;2023-10-09T12:47:18;94540.47;;;21.18;30.83
40384;BME280;26097;42.366;23.818;2023-10-09T12:50:18;94538.38;;;20.96;29.93
40384;BME280;26097;42.366;23.818;2023-10-09T12:53:26;94539.88;;;20.99;30.67
40384;BME280;26097;42.366;23.818;2023-10-09T12:56:28;94529.16;;;20.84;31.26
40384;BME280;26097;42.366;23.818;2023-10-09T12:59:36;94534.28;;;21.34;30.74
40384;BME280;26097;42.366;23.818;2023-10-09T13:02:35;94527.38;;;21.24;31.32
40384;BME280;26097;42.366;23.818;2023-10-09T13:05:35;94510.91;;;21.29;30.30
40384;BME280;26097;42.366;23.818;2023-10-09T13:08:36;94513.69;;;21.44;30.71
40384;BME280;26097;42.366;23.818;2023-10-09T13:11:40;94518.56;;;21.24;29.44
40384;BME280;26097;42.366;23.818;2023-10-09T13:14:40;94507.75;;;21.34;30.25
40384;BME280;26097;42.366;23.818;2023-10-09T13:17:40;94494.66;;;21.72;30.07
40384;BME280;26097;42.366;23.818;2023-10-09T13:20:40;94502.44;;;21.74;30.19
40384;BME280;26097;42.366;23.818;2023-10-09T13:23:40;94505.25;;;21.72;29.66
40384;BME280;26097;42.366;23.818;2023-10-09T13:26:40;94500.00;;;21.32;29.97
40384;BME280;26097;42.366;23.818;2023-10-09T13:29:40;94494.91;;;21.22;30.11
40384;BME280;26097;42.366;23.818;2023-10-09T13:32:40;94489.22;;;21.65;31.34
40384;BME280;26097;42.366;23.818;2023-10-09T13:35:39;94496.25;;;21.81;30.89
40384;BME280;26097;42.366;23.818;2023-10-09T13:38:47;94488.16;;;21.98;32.60
40384;BME280;26097;42.366;23.818;2023-10-09T13:41:47;94476.31;;;21.86;32.69
40384;BME280;26097;42.366;23.818;2023-10-09T13:44:47;94470.59;;;21.97;33.69
40384;BME280;26097;42.366;23.818;2023-10-09T13:47:48;94461.63;;;21.98;34.96
40384;BME280;26097;42.366;23.818;2023-10-09T13:50:48;94470.91;;;22.02;35.49
40384;BME280;26097;42.366;23.818;2023-10-09T13:53:47;94456.09;;;21.85;36.26
40384;BME280;26097;42.366;23.818;2023-10-09T13:56:48;94455.84;;;21.71;36.94
40384;BME280;26097;42.366;23.818;2023-10-09T13:59:51;94465.41;;;21.80;36.52
40384;BME280;26097;42.366;23.818;2023-10-09T14:02:51;94465.75;;;21.77;36.22
40384;BME280;26097;42.366;23.818;2023-10-09T14:05:51;94466.06;;;21.82;36.01
40384;BME280;26097;42.366;23.818;2023-10-09T14:09:09;94463.97;;;21.69;36.16
40384;BME280;26097;42.366;23.818;2023-10-09T14:12:08;94460.31;;;21.71;36.74
40384;BME280;26097;42.366;23.818;2023-10-09T14:15:13;94464.72;;;21.55;36.69
40384;BME280;26097;42.366;23.818;2023-10-09T14:18:16;94466.28;;;21.41;36.76
40384;BME280;26097;42.366;23.818;2023-10-09T14:21:16;94464.34;;;21.35;37.74
40384;BME280;26097;42.366;23.818;2023-10-09T14:24:15;94466.59;;;21.15;37.63
40384;BME280;26097;42.366;23.818;2023-10-09T14:27:15;94463.63;;;21.09;38.59
40384;BME280;26097;42.366;23.818;2023-10-09T14:30:16;94468.91;;;21.09;38.17
40384;BME280;26097;42.366;23.818;2023-10-09T14:33:22;94475.13;;;20.77;38.91
40384;BME280;26097;42.366;23.818;2023-10-09T14:36:24;94469.59;;;20.47;39.82
40384;BME280;26097;42.366;23.818;2023-10-09T14:39:32;94465.47;;;19.94;40.58
40384;BME280;26097;42.366;23.818;2023-10-09T14:42:35;94467.25;;;19.52;41.53
40384;BME280;26097;42.366;23.818;2023-10-09T14:45:38;94463.84;;;19.17;41.98
40384;BME280;26097;42.366;23.818;2023-10-09T14:48:37;94455.25;;;19.07;42.31
40384;BME280;26097;42.366;23.818;2023-10-09T14:51:37;94443.09;;;19.31;42.29
40384;BME280;26097;42.366;23.818;2023-10-09T14:54:39;94437.44;;;19.17;43.04
40384;BME280;26097;42.366;23.818;2023-10-09T14:57:38;94449.59;;;19.02;42.26
40384;BME280;26097;42.366;23.818;2023-10-09T15:00:38;94455.41;;;18.79;43.13
40384;BME280;26097;42.366;23.818;2023-10-09T15:03:37;94470.19;;;18.37;44.26
40384;BME280;26097;42.366;23.818;2023-10-09T15:06:37;94461.66;;;18.17;44.58
40384;BME280;26097;42.366;23.818;2023-10-09T15:09:37;94465.22;;;17.89;45.49
40384;BME280;26097;42.366;23.818;2023-10-09T15:12:39;94468.38;;;17.75;45.50
40384;BME280;26097;42.366;23.818;2023-10-09T15:15:42;94457.75;;;17.48;46.76
40384;BME280;26097;42.366;23.818;2023-10-09T15:18:42;94462.91;;;17.32;46.99
40384;BME280;26097;42.366;23.818;2023-10-09T15:21:42;94459.69;;;17.10;47.73
40384;BME280;26097;42.366;23.818;2023-10-09T15:24:44;94460.34;;;16.84;48.58
40384;BME280;26097;42.366;23.818;2023-10-09T15:27:44;94465.69;;;16.64;49.06
40384;BME280;26097;42.366;23.818;2023-10-09T15:30:43;94450.25;;;16.41;49.97
40384;BME280;26097;42.366;23.818;2023-10-09T15:33:43;94454.22;;;16.18;50.99
40384;BME280;26097;42.366;23.818;2023-10-09T15:36:42;94458.66;;;15.97;51.99
40384;BME280;26097;42.366;23.818;2023-10-09T15:39:41;94448.72;;;15.71;53.22
40384;BME280;26097;42.366;23.818;2023-10-09T15:42:43;94458.53;;;15.50;54.56
40384;BME280;26097;42.366;23.818;2023-10-09T15:45:43;94456.00;;;15.19;55.10
40384;BME280;26097;42.366;23.818;2023-10-09T15:48:49;94461.06;;;14.91;55.79
40384;BME280;26097;42.366;23.818;2023-10-09T15:51:50;94454.03;;;14.60;57.15
40384;BME280;26097;42.366;23.818;2023-10-09T15:54:49;94460.84;;;14.41;58.07
40384;BME280;26097;42.366;23.818;2023-10-09T15:57:50;94468.41;;;14.13;59.55
40384;BME280;26097;42.366;23.818;2023-10-09T16:00:58;94463.84;;;13.84;60.31
40384;BME280;26097;42.366;23.818;2023-10-09T16:03:59;94469.19;;;13.62;61.04
40384;BME280;26097;42.366;23.818;2023-10-09T16:07:02;94464.00;;;13.39;63.57
40384;BME280;26097;42.366;23.818;2023-10-09T16:10:08;94465.97;;;13.14;64.34
40384;BME280;26097;42.366;23.818;2023-10-09T16:13:08;94467.69;;;12.92;64.16
40384;BME280;26097;42.366;23.818;2023-10-09T16:16:12;94462.13;;;12.74;65.50
40384;BME280;26097;42.366;23.818;2023-10-09T16:19:12;94467.00;;;12.56;65.51
40384;BME280;26097;42.366;23.818;2023-10-09T16:22:11;94469.63;;;12.45;65.83